Time;durP1;ratioP1;P1;durP2;ratioP2;P2;SDS_P1;SDS_P2;PMS_P1;PMS_P2;Temp;Humidity;BMP_temperature;BMP_pressure;BME280_temperature;BME280_humidity;BME280_pressure;Samples;Min_cycle;Max_cycle;Signal;HPM_P1;HPM_P2
2023/11/01 00:01:27;;;;;;;5.10;2.92;;;10.50;99.90;;;;;;5042135;28;20042;-41
2023/11/01 00:03:54;;;;;;;6.15;2.95;;;10.50;99.90;;;;;;5041699;28;20495;-42
2023/11/01 00:06:21;;;;;;;5.72;3.03;;;10.40;99.90;;;;;;5038988;28;20068;-40
2023/11/01 00:08:49;;;;;;;6.53;2.95;;;10.40;99.90;;;;;;5032495;28;20053;-39
2023/11/01 00:11:16;;;;;;;5.40;2.85;;;10.50;99.90;;;;;;5028681;28;20037;-37
2023/11/01 00:13:43;;;;;;;5.95;3.00;;;10.50;99.90;;;;;;5029076;28;20139;-38
2023/11/01 00:16:10;;;;;;;5.18;2.78;;;10.50;99.90;;;;;;5028392;28;20054;-40
2023/11/01 00:18:37;;;;;;;4.65;2.53;;;10.50;99.90;;;;;;5028436;28;20388;-40
2023/11/01 00:21:05;;;;;;;7.43;2.58;;;10.50;99.90;;;;;;5034000;28;20046;-40
2023/11/01 00:23:32;;;;;;;5.80;2.97;;;10.40;99.90;;;;;;5036690;28;20042;-40
2023/11/01 00:25:59;;;;;;;5.65;2.67;;;10.50;99.90;;;;;;5028849;28;20041;-38
2023/11/01 00:28:27;;;;;;;4.95;2.65;;;10.50;99.90;;;;;;5030992;28;20144;-37
2023/11/01 00:30:54;;;;;;;8.57;2.55;;;10.40;99.90;;;;;;5030120;28;20048;-38
2023/11/01 00:33:21;;;;;;;8.32;2.78;;;10.50;99.90;;;;;;5031648;28;20057;-38
2023/11/01 00:35:48;;;;;;;4.35;2.40;;;10.50;99.90;;;;;;5028806;28;20041;-40
2023/11/01 00:38:20;;;;;;;4.97;2.85;;;10.40;99.90;;;;;;5029868;28;20057;-37
2023/11/01 00:40:48;;;;;;;4.95;2.67;;;10.40;99.90;;;;;;5030675;28;20105;-41
2023/11/01 00:43:15;;;;;;;4.22;2.15;;;10.40;99.90;;;;;;5033215;28;20437;-40
2023/11/01 00:45:42;;;;;;;4.20;2.65;;;10.40;99.90;;;;;;5036314;28;20433;-39
2023/11/01 00:48:09;;;;;;;5.70;2.88;;;10.40;99.90;;;;;;5028647;28;20152;-39
2023/11/01 00:50:36;;;;;;;4.55;2.42;;;10.40;99.90;;;;;;5030726;28;20053;-38
2023/11/01 00:53:03;;;;;;;5.53;2.53;;;10.50;99.90;;;;;;5032067;28;20148;-42
2023/11/01 00:55:31;;;;;;;5.63;2.55;;;10.50;99.90;;;;;;5041522;28;20033;-39
2023/11/01 00:57:58;;;;;;;5.32;2.58;;;10.40;99.90;;;;;;5044876;28;20069;-40
2023/11/01 01:00:25;;;;;;;6.47;2.35;;;10.40;99.90;;;;;;5042225;28;20041;-39
2023/11/01 01:02:52;;;;;;;5.40;2.63;;;10.30;99.90;;;;;;5032622;28;20041;-38
2023/11/01 01:05:19;;;;;;;6.22;2.50;;;10.30;99.90;;;;;;5028618;28;20473;-37
2023/11/01 01:07:46;;;;;;;7.63;2.85;;;10.30;99.90;;;;;;5030017;28;20046;-40
2023/11/01 01:10:13;;;;;;;3.78;2.28;;;10.20;99.90;;;;;;5027881;28;20041;-37
2023/11/01 01:12:40;;;;;;;4.07;2.58;;;10.10;99.90;;;;;;5032795;28;20080;-40
2023/11/01 01:15:08;;;;;;;3.20;2.30;;;10.10;99.90;;;;;;5041239;28;20045;-41
2023/11/01 01:17:35;;;;;;;4.93;2.78;;;10.10;99.90;;;;;;5043638;28;20038;-39
2023/11/01 01:20:03;;;;;;;4.75;2.85;;;10.10;99.90;;;;;;5042999;28;20059;-41
2023/11/01 01:22:30;;;;;;;4.82;2.42;;;10.00;99.90;;;;;;5034576;28;20060;-36
2023/11/01 01:24:57;;;;;;;6.30;2.85;;;10.00;99.90;;;;;;5014988;28;20045;-42
2023/11/01 01:27:24;;;;;;;6.28;3.05;;;10.00;99.90;;;;;;5029267;28;20131;-40
2023/11/01 01:29:51;;;;;;;5.65;2.20;;;10.00;99.90;;;;;;5030395;28;20041;-37
2023/11/01 01:32:18;;;;;;;6.07;2.90;;;10.00;99.90;;;;;;5029438;28;20053;-40
2023/11/01 01:34:45;;;;;;;7.35;2.78;;;10.00;99.90;;;;;;5028465;28;20488;-39
2023/11/01 01:37:12;;;;;;;5.72;2.88;;;10.00;99.90;;;;;;5028501;28;20041;-38
2023/11/01 01:39:39;;;;;;;6.93;2.58;;;10.00;99.90;;;;;;5028284;28;20447;-38
2023/11/01 01:42:06;;;;;;;4.75;2.70;;;10.00;99.90;;;;;;5028641;28;20049;-38
2023/11/01 01:44:33;;;;;;;4.43;2.60;;;10.00;99.90;;;;;;5027833;28;20060;-39
2023/11/01 01:47:00;;;;;;;4.63;2.42;;;10.00;99.90;;;;;;5026424;28;20119;-39
2023/11/01 01:49:27;;;;;;;4.25;2.40;;;10.00;99.90;;;;;;5029506;28;20565;-40
2023/11/01 01:52:05;;;;;;;5.20;2.40;;;10.00;99.90;;;;;;5030101;28;20051;-40
2023/11/01 01:54:33;;;;;;;4.35;2.45;;;10.00;99.90;;;;;;5036273;28;20061;-41
2023/11/01 01:57:01;;;;;;;8.43;2.63;;;9.90;99.90;;;;;;5034656;28;20046;-41
2023/11/01 01:59:28;;;;;;;5.07;2.85;;;10.00;99.90;;;;;;5029127;28;20124;-40
2023/11/01 02:02:46;;;;;;;4.60;2.47;;;10.00;99.90;;;;;;5026751;28;20068;-40
2023/11/01 02:05:13;;;;;;;4.97;2.75;;;10.00;99.90;;;;;;5027164;28;20053;-41
2023/11/01 02:07:40;;;;;;;4.40;2.30;;;9.90;99.90;;;;;;5025357;28;20072;-40
2023/11/01 02:10:14;;;;;;;5.63;2.45;;;9.90;99.90;;;;;;5031347;28;20279;-38
2023/11/01 02:12:41;;;;;;;6.20;2.58;;;9.90;99.90;;;;;;5029592;28;20046;-38
2023/11/01 02:15:08;;;;;;;4.15;2.53;;;9.90;99.90;;;;;;5027331;28;20049;-40
2023/11/01 02:17:35;;;;;;;5.95;2.67;;;9.90;99.90;;;;;;5027910;28;20043;-40
2023/11/01 02:20:03;;;;;;;3.85;2.33;;;9.90;99.90;;;;;;5027813;28;20052;-39
2023/11/01 02:22:30;;;;;;;6.40;2.40;;;9.90;99.90;;;;;;5028498;28;20442;-40
2023/11/01 02:24:57;;;;;;;3.38;2.03;;;9.90;99.90;;;;;;5026828;28;20058;-36
2023/11/01 02:27:24;;;;;;;5.72;2.42;;;9.90;99.90;;;;;;5027361;28;20068;-41
2023/11/01 02:29:51;;;;;;;7.13;2.33;;;9.90;99.90;;;;;;5028430;28;20046;-38
2023/11/01 02:32:20;;;;;;;5.80;2.58;;;9.90;99.90;;;;;;5028397;28;20045;-40
2023/11/01 02:34:48;;;;;;;7.70;2.35;;;9.90;99.90;;;;;;5030552;28;20128;-40
2023/11/01 02:37:15;;;;;;;4.00;2.40;;;9.90;99.90;;;;;;5029533;28;20045;-39
2023/11/01 02:39:42;;;;;;;4.93;2.20;;;9.90;99.90;;;;;;5032889;28;20048;-38
2023/11/01 02:42:09;;;;;;;5.47;2.83;;;10.00;99.90;;;;;;5030784;28;20374;-37
2023/11/01 02:44:37;;;;;;;6.07;2.40;;;10.00;99.90;;;;;;5031199;28;20527;-38
2023/11/01 02:47:04;;;;;;;5.90;3.03;;;10.00;99.90;;;;;;5029004;28;20057;-39
2023/11/01 02:49:31;;;;;;;6.80;2.70;;;10.00;99.90;;;;;;5032420;28;20568;-39
2023/11/01 02:51:58;;;;;;;7.13;2.80;;;10.00;99.90;;;;;;5032379;28;20088;-37
2023/11/01 02:54:25;;;;;;;4.20;2.53;;;10.00;99.90;;;;;;5031295;28;20037;-40
2023/11/01 02:56:56;;;;;;;4.47;2.47;;;10.00;99.90;;;;;;5032368;28;20037;-37
2023/11/01 02:59:24;;;;;;;6.18;2.67;;;10.00;99.90;;;;;;5028739;28;20042;-40
2023/11/01 03:01:51;;;;;;;6.22;3.00;;;10.10;99.90;;;;;;5031738;28;20483;-40
2023/11/01 03:04:18;;;;;;;5.63;2.95;;;10.10;99.90;;;;;;5032237;28;20224;-39
2023/11/01 03:06:45;;;;;;;6.00;3.10;;;10.10;99.90;;;;;;5031393;28;20056;-39
2023/11/01 03:09:12;;;;;;;5.72;2.78;;;10.10;99.90;;;;;;5030045;28;20049;-40
2023/11/01 03:11:40;;;;;;;7.57;3.55;;;9.90;99.90;;;;;;5032324;28;20061;-39
2023/11/01 03:14:07;;;;;;;4.97;3.17;;;9.90;99.90;;;;;;5032987;28;20058;-36
2023/11/01 03:16:36;;;;;;;7.90;3.50;;;9.90;99.90;;;;;;5031860;28;20072;-36
2023/11/01 03:19:03;;;;;;;6.28;3.58;;;9.80;99.90;;;;;;5032112;28;20145;-36
2023/11/01 03:21:30;;;;;;;6.13;3.15;;;9.80;99.90;;;;;;5031511;28;20037;-38
2023/11/01 03:23:57;;;;;;;6.13;3.58;;;9.80;99.90;;;;;;5031784;28;20057;-40
2023/11/01 03:26:24;;;;;;;8.32;3.88;;;9.80;99.90;;;;;;5032074;28;20437;-39
2023/11/01 03:28:52;;;;;;;5.30;3.50;;;9.80;99.90;;;;;;5037136;28;20045;-40
2023/11/01 03:31:19;;;;;;;6.47;3.35;;;9.80;99.90;;;;;;5041978;28;20537;-38
2023/11/01 03:33:46;;;;;;;7.43;3.83;;;9.80;99.90;;;;;;5038593;28;20418;-41
2023/11/01 03:36:13;;;;;;;5.75;3.00;;;9.80;99.90;;;;;;5032543;28;20060;-41
2023/11/01 03:38:40;;;;;;;7.05;3.63;;;9.80;99.90;;;;;;5029108;28;20466;-38
2023/11/01 03:41:08;;;;;;;6.78;3.53;;;9.80;99.90;;;;;;5038054;28;20447;-39
2023/11/01 03:43:35;;;;;;;6.07;3.38;;;9.80;99.90;;;;;;5039114;28;20045;-38
2023/11/01 03:46:03;;;;;;;7.72;4.13;;;9.80;99.90;;;;;;5030115;28;20045;-36
2023/11/01 03:48:30;;;;;;;6.30;3.70;;;9.80;99.90;;;;;;5028883;28;20049;-39
2023/11/01 03:50:57;;;;;;;7.10;3.92;;;9.80;99.90;;;;;;5030025;28;20072;-37
2023/11/01 03:53:24;;;;;;;6.72;3.90;;;9.80;99.90;;;;;;5027831;28;20053;-38
2023/11/01 03:55:51;;;;;;;6.55;4.00;;;9.80;99.90;;;;;;5031116;28;20065;-41
2023/11/01 03:58:19;;;;;;;10.10;3.97;;;9.80;99.90;;;;;;5029937;28;20037;-39
2023/11/01 04:00:46;;;;;;;6.60;3.95;;;9.80;99.90;;;;;;5028536;28;20068;-39
2023/11/01 04:03:13;;;;;;;6.75;3.78;;;9.80;99.90;;;;;;5030813;28;20046;-37
2023/11/01 04:05:40;;;;;;;5.95;3.58;;;9.80;99.90;;;;;;5030755;28;20049;-38
2023/11/01 04:08:07;;;;;;;7.25;4.30;;;9.70;99.90;;;;;;5031917;28;20055;-38
2023/11/01 04:10:34;;;;;;;6.20;4.05;;;9.80;99.90;;;;;;5031103;28;20038;-37
2023/11/01 04:13:03;;;;;;;7.28;4.05;;;9.70;99.90;;;;;;5031929;28;20526;-36
2023/11/01 04:15:31;;;;;;;9.15;4.18;;;9.70;99.90;;;;;;5031260;28;20042;-38
2023/11/01 04:17:58;;;;;;;6.13;4.10;;;9.80;99.90;;;;;;5029807;28;20123;-40
2023/11/01 04:20:29;;;;;;;6.17;4.13;;;9.80;99.90;;;;;;5027166;28;20041;-40
2023/11/01 04:22:56;;;;;;;5.78;4.18;;;9.80;99.90;;;;;;5031919;28;20045;-38
2023/11/01 04:25:24;;;;;;;7.63;4.40;;;9.90;99.90;;;;;;5037193;28;20045;-39
2023/11/01 04:27:51;;;;;;;7.10;4.70;;;9.90;99.90;;;;;;5034835;28;20054;-39
2023/11/01 04:30:18;;;;;;;9.93;4.72;;;9.80;99.90;;;;;;5027642;28;20046;-38
2023/11/01 04:32:45;;;;;;;6.97;4.63;;;9.80;99.90;;;;;;5029154;28;20123;-38
2023/11/01 04:35:12;;;;;;;11.02;4.38;;;9.70;99.90;;;;;;5033830;28;20140;-38
2023/11/01 04:37:40;;;;;;;7.53;4.88;;;9.80;99.90;;;;;;5036018;28;20068;-39
2023/11/01 04:40:12;;;;;;;7.60;5.05;;;9.80;99.90;;;;;;5037637;28;20096;-39
2023/11/01 04:42:41;;;;;;;9.32;4.88;;;9.80;99.90;;;;;;5033171;28;20069;-39
2023/11/01 04:45:09;;;;;;;9.70;5.28;;;9.80;99.90;;;;;;5028405;28;20046;-39
2023/11/01 04:47:38;;;;;;;7.47;4.57;;;9.80;99.90;;;;;;5028179;28;20068;-39
2023/11/01 04:50:08;;;;;;;8.20;5.13;;;9.80;99.90;;;;;;5046511;28;20099;-39
2023/11/01 04:52:40;;;;;;;11.50;4.88;;;9.80;99.90;;;;;;5045633;28;20058;-41
2023/11/01 04:55:08;;;;;;;8.48;5.07;;;9.80;99.90;;;;;;5030584;28;20045;-38
2023/11/01 04:57:35;;;;;;;7.35;5.00;;;9.80;99.90;;;;;;5029328;28;20056;-38
2023/11/01 05:00:15;;;;;;;8.27;5.40;;;9.80;99.90;;;;;;5030600;28;20117;-38
2023/11/01 05:02:47;;;;;;;12.27;5.67;;;9.80;99.90;;;;;;5027349;28;20045;-39
2023/11/01 05:05:15;;;;;;;8.27;5.78;;;9.80;99.90;;;;;;5033328;28;20087;-38
2023/11/01 05:07:42;;;;;;;10.30;5.43;;;9.80;99.90;;;;;;5027295;28;20064;-38
2023/11/01 05:10:09;;;;;;;8.27;4.93;;;9.70;99.90;;;;;;5032380;28;20050;-38
2023/11/01 05:12:36;;;;;;;8.48;5.15;;;9.80;99.90;;;;;;5032366;28;20053;-38
2023/11/01 05:15:03;;;;;;;9.68;5.82;;;9.70;99.90;;;;;;5025506;28;20132;-36
2023/11/01 05:17:32;;;;;;;9.85;6.22;;;9.70;99.90;;;;;;5032349;28;20044;-38
2023/11/01 05:19:59;;;;;;;8.80;5.78;;;9.80;99.90;;;;;;5032874;28;20051;-39
2023/11/01 05:22:26;;;;;;;13.48;7.97;;;9.80;99.90;;;;;;5030469;28;20076;-40
2023/11/01 05:24:53;;;;;;;9.60;6.82;;;9.80;99.90;;;;;;5027517;28;20044;-36
2023/11/01 05:27:20;;;;;;;11.38;6.00;;;9.80;99.90;;;;;;5028870;28;20509;-37
2023/11/01 05:29:47;;;;;;;8.27;5.75;;;9.80;99.90;;;;;;5029711;28;20053;-37
2023/11/01 05:32:14;;;;;;;10.23;5.30;;;9.80;99.90;;;;;;5026893;28;20045;-38
2023/11/01 05:34:41;;;;;;;10.10;6.45;;;9.80;99.90;;;;;;5024625;28;20067;-37
2023/11/01 05:37:11;;;;;;;19.65;13.60;;;9.80;99.90;;;;;;5030043;28;20049;-37
2023/11/01 05:39:38;;;;;;;12.70;8.80;;;9.80;99.90;;;;;;5025767;28;20041;-37
2023/11/01 05:42:05;;;;;;;9.52;6.90;;;9.80;99.90;;;;;;5028562;28;20051;-39
2023/11/01 05:44:32;;;;;;;23.38;20.13;;;9.80;99.90;;;;;;5027568;28;20061;-39
2023/11/01 05:46:59;;;;;;;12.45;10.13;;;9.80;99.90;;;;;;5028875;28;20068;-39
2023/11/01 05:49:27;;;;;;;11.70;6.43;;;9.90;99.90;;;;;;5030709;28;20056;-38
2023/11/01 05:51:54;;;;;;;13.30;9.38;;;9.80;99.90;;;;;;5028512;28;20060;-39
2023/11/01 05:54:21;;;;;;;15.65;11.50;;;9.80;99.90;;;;;;5036212;28;20054;-40
2023/11/01 05:56:48;;;;;;;11.25;7.78;;;9.90;99.90;;;;;;5035163;28;20285;-39
2023/11/01 05:59:15;;;;;;;20.23;15.50;;;9.80;99.90;;;;;;5037113;28;20050;-36
2023/11/01 06:01:42;;;;;;;13.10;9.40;;;9.90;99.90;;;;;;5036456;28;20076;-38
2023/11/01 06:04:09;;;;;;;10.77;6.03;;;9.90;99.90;;;;;;5031415;28;20461;-38
2023/11/01 06:06:36;;;;;;;9.27;4.70;;;9.90;99.90;;;;;;5028389;28;20042;-37
2023/11/01 06:09:03;;;;;;;9.45;5.60;;;9.90;99.90;;;;;;5026692;28;20156;-37
2023/11/01 06:11:31;;;;;;;8.02;4.32;;;9.80;99.90;;;;;;5029599;28;20053;-39
2023/11/01 06:13:59;;;;;;;7.78;4.15;;;9.90;99.90;;;;;;5037611;28;20570;-39
2023/11/01 06:16:26;;;;;;;8.52;4.20;;;9.90;99.90;;;;;;5045865;28;20068;-40
2023/11/01 06:18:53;;;;;;;7.15;3.95;;;9.90;99.90;;;;;;5046435;28;20045;-39
2023/11/01 06:21:20;;;;;;;7.53;3.80;;;10.00;99.90;;;;;;5046798;28;20041;-38
2023/11/01 06:23:47;;;;;;;6.85;4.13;;;10.00;99.90;;;;;;5037928;28;20051;-37
2023/11/01 06:26:16;;;;;;;6.65;3.28;;;10.00;99.90;;;;;;5034926;28;20390;-38
2023/11/01 06:28:43;;;;;;;8.05;4.35;;;10.00;99.90;;;;;;5034106;28;20067;-40
2023/11/01 06:31:14;;;;;;;6.90;3.50;;;10.10;99.90;;;;;;5033808;28;20449;-40
2023/11/01 06:33:41;;;;;;;5.93;3.60;;;10.10;99.90;;;;;;5044784;28;20045;-39
2023/11/01 06:36:08;;;;;;;8.82;3.97;;;10.20;99.90;;;;;;5046237;28;20041;-37
2023/11/01 06:38:36;;;;;;;9.95;4.45;;;10.10;99.90;;;;;;5046922;28;20044;-38
2023/11/01 06:41:04;;;;;;;6.70;3.78;;;10.20;99.90;;;;;;5046347;28;20056;-38
2023/11/01 06:43:32;;;;;;;7.57;4.20;;;10.20;99.90;;;;;;5044835;28;20041;-38
2023/11/01 06:45:59;;;;;;;7.28;3.60;;;10.30;99.90;;;;;;5044546;28;20045;-39
2023/11/01 06:48:26;;;;;;;5.22;2.70;;;10.20;99.90;;;;;;5038853;28;20537;-40
2023/11/01 06:50:53;;;;;;;5.07;2.70;;;10.30;99.90;;;;;;5035786;28;20069;-38
2023/11/01 06:53:20;;;;;;;5.82;3.03;;;10.40;99.90;;;;;;5036165;28;20506;-37
2023/11/01 06:55:47;;;;;;;6.97;3.35;;;10.40;99.90;;;;;;5041191;28;20054;-39
2023/11/01 06:58:14;;;;;;;6.15;2.47;;;10.40;99.90;;;;;;5040747;28;20055;-38
2023/11/01 07:00:42;;;;;;;5.78;2.45;;;10.50;99.90;;;;;;5036186;28;20045;-39
2023/11/01 07:03:09;;;;;;;5.85;2.45;;;10.40;99.90;;;;;;5040332;28;20065;-39
2023/11/01 07:05:38;;;;;;;4.65;2.60;;;10.50;99.90;;;;;;5039820;28;20045;-38
2023/11/01 07:08:05;;;;;;;5.57;2.30;;;10.50;99.90;;;;;;5035107;28;20115;-40
2023/11/01 07:10:32;;;;;;;9.90;2.80;;;10.50;99.90;;;;;;5035276;28;20407;-36
2023/11/01 07:12:59;;;;;;;8.18;4.15;;;10.60;99.90;;;;;;5035171;28;20087;-37
2023/11/01 07:15:26;;;;;;;13.80;5.95;;;10.60;99.90;;;;;;5035772;28;20033;-40
2023/11/01 07:17:53;;;;;;;5.43;2.50;;;10.70;99.90;;;;;;5035446;28;20053;-39
2023/11/01 07:20:20;;;;;;;6.45;2.70;;;10.70;99.90;;;;;;5032217;28;20071;-38
2023/11/01 07:22:47;;;;;;;4.10;2.10;;;10.80;99.90;;;;;;5033107;28;20046;-40
2023/11/01 07:25:14;;;;;;;6.22;2.30;;;10.90;99.90;;;;;;5034490;28;20117;-37
2023/11/01 07:27:41;;;;;;;3.92;2.30;;;11.10;99.90;;;;;;5034156;28;20058;-38
2023/11/01 07:30:09;;;;;;;4.95;2.20;;;11.10;99.90;;;;;;5032302;28;20150;-38
2023/11/01 07:32:36;;;;;;;5.75;2.45;;;11.20;99.90;;;;;;5030627;28;20140;-38
2023/11/01 07:35:04;;;;;;;4.80;2.10;;;11.30;99.90;;;;;;5029470;28;20084;-38
2023/11/01 07:37:31;;;;;;;5.38;2.35;;;11.40;99.90;;;;;;5030771;28;20041;-39
2023/11/01 07:39:59;;;;;;;4.47;2.35;;;11.40;99.90;;;;;;5031953;28;20162;-40
2023/11/01 07:42:26;;;;;;;5.93;3.50;;;11.40;99.90;;;;;;5033015;28;20052;-39
2023/11/01 07:44:53;;;;;;;6.38;2.70;;;11.50;99.90;;;;;;5032464;28;20053;-38
2023/11/01 07:47:20;;;;;;;4.88;2.17;;;11.50;99.90;;;;;;5027912;28;20076;-38
2023/11/01 07:49:49;;;;;;;3.88;2.08;;;11.60;99.90;;;;;;5032954;28;20056;-40
2023/11/01 07:52:16;;;;;;;7.90;2.47;;;11.60;99.90;;;;;;5035374;28;20041;-38
2023/11/01 07:54:43;;;;;;;4.28;2.00;;;11.60;99.90;;;;;;5035991;28;20042;-40
2023/11/01 07:57:11;;;;;;;6.68;2.08;;;11.70;99.90;;;;;;5035897;28;20042;-40
2023/11/01 07:59:38;;;;;;;4.53;1.80;;;11.80;99.90;;;;;;5036702;28;20052;-40
2023/11/01 08:02:06;;;;;;;3.53;1.90;;;11.80;99.90;;;;;;5031882;28;20056;-40
2023/11/01 08:04:33;;;;;;;6.35;2.05;;;11.90;99.90;;;;;;5033051;28;20101;-41
2023/11/01 08:07:00;;;;;;;4.47;1.70;;;11.90;99.90;;;;;;5028518;28;20422;-40
2023/11/01 08:09:27;;;;;;;5.88;2.00;;;12.00;99.90;;;;;;5030112;28;20548;-38
2023/11/01 08:11:54;;;;;;;7.43;2.20;;;12.10;99.90;;;;;;5030224;28;20407;-40
2023/11/01 08:14:21;;;;;;;4.20;2.10;;;12.10;99.90;;;;;;5026596;28;20149;-40
2023/11/01 08:16:48;;;;;;;8.25;3.20;;;12.30;99.90;;;;;;5030215;28;20055;-39
2023/11/01 08:19:16;;;;;;;5.35;2.38;;;12.60;99.90;;;;;;5031568;28;20506;-40
2023/11/01 08:21:42;;;;;;;5.45;2.25;;;12.50;99.90;;;;;;5039425;28;20054;-40
2023/11/01 08:24:10;;;;;;;5.30;2.42;;;12.70;99.90;;;;;;5042291;28;20053;-40
2023/11/01 08:26:37;;;;;;;3.47;1.70;;;12.80;99.90;;;;;;5036174;28;20057;-39
2023/11/01 08:29:04;;;;;;;5.45;2.58;;;12.80;99.90;;;;;;5038064;28;20048;-37
2023/11/01 08:31:31;;;;;;;5.63;3.13;;;13.00;99.90;;;;;;5035358;28;20087;-37
2023/11/01 08:33:58;;;;;;;5.63;2.20;;;13.00;99.90;;;;;;5031595;28;20061;-37
2023/11/01 08:36:25;;;;;;;6.53;2.15;;;13.00;99.90;;;;;;5030677;28;20072;-40
2023/11/01 08:38:52;;;;;;;4.72;1.77;;;13.10;99.90;;;;;;5029881;28;20129;-39
2023/11/01 08:41:39;;;;;;;4.10;2.15;;;13.10;99.90;;;;;;5029368;28;20053;-36
2023/11/01 08:44:27;;;;;;;5.25;2.05;;;13.20;99.90;;;;;;5030003;28;20526;-40
2023/11/01 08:46:54;;;;;;;5.50;2.00;;;13.10;99.90;;;;;;5027284;28;20049;-41
2023/11/01 08:49:21;;;;;;;3.55;1.80;;;13.20;99.90;;;;;;5030989;28;20045;-41
2023/11/01 08:51:49;;;;;;;4.43;1.85;;;13.20;99.90;;;;;;5031940;28;20037;-39
2023/11/01 08:54:16;;;;;;;4.32;2.45;;;13.30;99.90;;;;;;5030797;28;20096;-38
2023/11/01 08:56:43;;;;;;;3.20;1.80;;;13.50;99.90;;;;;;5030174;28;20041;-39
2023/11/01 08:59:10;;;;;;;6.28;2.42;;;13.60;99.90;;;;;;5030509;28;20049;-39
2023/11/01 09:01:37;;;;;;;6.65;2.42;;;13.70;99.90;;;;;;5027910;28;20050;-37
2023/11/01 09:04:04;;;;;;;6.15;2.10;;;13.70;99.90;;;;;;5027436;28;20141;-40
2023/11/01 09:06:33;;;;;;;5.82;2.92;;;13.60;99.90;;;;;;5028311;28;20445;-36
2023/11/01 09:09:00;;;;;;;3.65;1.90;;;13.80;99.90;;;;;;5029678;28;20049;-38
2023/11/01 09:11:28;;;;;;;5.20;2.90;;;13.90;99.90;;;;;;5028449;28;20045;-37
2023/11/01 09:13:55;;;;;;;10.52;5.35;;;14.00;99.90;;;;;;5028541;28;20053;-37
2023/11/01 09:16:22;;;;;;;4.22;2.08;;;14.00;99.90;;;;;;5030794;28;20050;-38
2023/11/01 09:18:49;;;;;;;4.30;2.10;;;14.10;99.90;;;;;;5030250;28;20148;-37
2023/11/01 09:21:19;;;;;;;4.13;1.70;;;14.10;99.90;;;;;;5031740;28;20046;-41
2023/11/01 09:23:46;;;;;;;6.28;2.00;;;14.20;99.90;;;;;;5033324;28;20042;-41
2023/11/01 09:26:15;;;;;;;3.63;1.90;;;14.20;99.90;;;;;;5032228;28;20029;-41
2023/11/01 09:28:42;;;;;;;3.67;1.60;;;14.20;99.90;;;;;;5028664;28;20079;-40
2023/11/01 09:31:09;;;;;;;5.25;2.40;;;14.20;99.90;;;;;;5027996;28;20045;-39
2023/11/01 09:33:36;;;;;;;3.65;2.00;;;14.20;99.90;;;;;;5030595;28;20103;-39
2023/11/01 09:36:04;;;;;;;6.65;1.90;;;14.30;99.90;;;;;;5030886;28;20077;-41
2023/11/01 09:38:31;;;;;;;6.80;2.25;;;14.40;99.90;;;;;;5032612;28;20085;-42
2023/11/01 09:41:03;;;;;;;4.25;1.85;;;14.40;99.90;;;;;;5030874;28;20064;-39
2023/11/01 09:43:33;;;;;;;4.28;2.13;;;14.60;99.90;;;;;;5027308;28;20049;-38
2023/11/01 09:46:01;;;;;;;2.88;1.60;;;14.70;99.90;;;;;;5029749;28;20053;-41
2023/11/01 09:48:30;;;;;;;4.30;1.95;;;14.70;99.90;;;;;;5027770;28;20053;-40
2023/11/01 09:51:03;;;;;;;5.10;2.38;;;14.90;99.90;;;;;;5029438;28;20149;-40
2023/11/01 09:53:31;;;;;;;4.07;2.05;;;15.00;99.90;;;;;;5026734;28;20109;-39
2023/11/01 09:55:59;;;;;;;3.95;2.20;;;14.90;99.90;;;;;;5025766;28;20054;-39
2023/11/01 09:58:27;;;;;;;3.65;2.30;;;15.00;99.90;;;;;;5027499;28;20068;-38
2023/11/01 10:00:55;;;;;;;4.80;2.00;;;15.20;99.90;;;;;;5027850;28;20042;-39
2023/11/01 10:03:23;;;;;;;4.03;2.20;;;15.30;99.90;;;;;;5025722;28;20049;-39
2023/11/01 10:05:50;;;;;;;5.57;3.22;;;15.50;99.90;;;;;;5026245;28;20045;-35
2023/11/01 10:08:17;;;;;;;6.93;3.13;;;15.70;99.90;;;;;;5026526;28;20045;-39
2023/11/01 10:10:45;;;;;;;7.55;2.83;;;15.90;99.90;;;;;;5025508;28;20057;-40
2023/11/01 10:13:12;;;;;;;4.97;2.38;;;16.20;99.90;;;;;;5032113;28;20118;-41
2023/11/01 10:15:40;;;;;;;6.10;2.83;;;16.20;99.90;;;;;;5035473;28;20057;-39
2023/11/01 10:18:07;;;;;;;5.45;2.03;;;16.30;99.90;;;;;;5029826;28;20482;-39
2023/11/01 10:20:34;;;;;;;6.40;2.47;;;16.40;99.90;;;;;;5029417;28;20041;-39
2023/11/01 10:23:01;;;;;;;5.18;2.90;;;16.50;99.90;;;;;;5034138;28;20050;-39
2023/11/01 10:25:28;;;;;;;4.15;2.55;;;16.50;99.90;;;;;;5023769;28;20049;-40
2023/11/01 10:27:55;;;;;;;8.02;2.90;;;16.40;99.90;;;;;;5021038;28;20107;-37
2023/11/01 10:30:22;;;;;;;7.60;2.45;;;16.50;99.90;;;;;;5028128;28;20103;-38
2023/11/01 10:32:56;;;;;;;4.88;2.30;;;16.70;99.90;;;;;;5030895;28;20083;-40
2023/11/01 10:35:26;;;;;;;4.55;2.35;;;16.60;99.90;;;;;;5026166;28;20559;-40
2023/11/01 10:37:58;;;;;;;4.82;2.42;;;16.80;99.90;;;;;;5026368;28;20111;-38
2023/11/01 10:40:27;;;;;;;3.55;2.30;;;16.80;99.90;;;;;;5028864;28;20076;-39
2023/11/01 10:42:57;;;;;;;4.93;2.50;;;16.70;99.90;;;;;;5029115;28;20045;-40
2023/11/01 10:45:25;;;;;;;3.40;2.38;;;16.90;99.90;;;;;;5028792;28;20464;-41
2023/11/01 10:47:52;;;;;;;3.90;2.30;;;17.10;99.90;;;;;;5027292;28;20290;-38
2023/11/01 10:50:20;;;;;;;4.05;2.45;;;17.20;99.90;;;;;;5030395;28;20049;-39
2023/11/01 10:52:48;;;;;;;4.43;2.70;;;17.00;99.90;;;;;;5033377;28;20053;-37
2023/11/01 10:55:19;;;;;;;3.42;2.38;;;17.10;99.90;;;;;;5030570;28;20046;-36
2023/11/01 10:57:48;;;;;;;4.72;2.40;;;17.10;99.90;;;;;;5033671;28;20068;-39
2023/11/01 11:00:27;;;;;;;4.70;2.47;;;17.20;99.90;;;;;;5031513;28;20069;-40
2023/11/01 11:03:07;;;;;;;4.43;2.50;;;17.80;99.90;;;;;;5032780;28;20062;-40
2023/11/01 11:05:40;;;;;;;7.50;2.60;;;18.20;99.90;;;;;;5029229;28;20084;-36
2023/11/01 11:08:10;;;;;;;4.93;2.70;;;18.30;99.90;;;;;;5031373;28;20046;-40
2023/11/01 11:10:42;;;;;;;5.03;2.55;;;18.70;99.90;;;;;;5032022;28;20053;-41
2023/11/01 11:13:17;;;;;;;4.75;2.50;;;19.10;99.90;;;;;;5031948;28;20502;-40
2023/11/01 11:15:50;;;;;;;6.07;2.85;;;19.10;99.90;;;;;;5030303;28;20514;-40
2023/11/01 11:18:21;;;;;;;3.88;2.40;;;19.30;99.90;;;;;;5025633;28;20109;-39
2023/11/01 11:20:50;;;;;;;3.97;2.58;;;19.70;99.90;;;;;;5034112;28;20049;-39
2023/11/01 11:23:39;;;;;;;5.03;3.20;;;20.10;99.90;;;;;;5040844;28;20120;-40
2023/11/01 11:26:06;;;;;;;5.50;3.15;;;20.00;99.90;;;;;;5034405;28;20133;-40
2023/11/01 11:28:51;;;;;;;5.40;2.80;;;20.40;99.90;;;;;;5031843;28;20048;-39
2023/11/01 11:31:23;;;;;;;7.07;3.33;;;20.50;99.90;;;;;;5031735;28;20046;-38
2023/11/01 11:34:10;;;;;;;6.80;2.95;;;20.40;99.90;;;;;;5031107;28;20053;-38
2023/11/01 11:37:06;;;;;;;3.88;2.97;;;20.10;99.90;;;;;;5032653;28;20061;-38
2023/11/01 11:40:07;;;;;;;6.63;2.70;;;20.00;99.90;;;;;;5040802;28;20049;-39
2023/11/01 11:42:40;;;;;;;5.95;2.58;;;20.50;99.90;;;;;;5040800;28;20041;-42
2023/11/01 11:45:10;;;;;;;3.65;2.50;;;20.40;99.90;;;;;;5042856;28;20089;-36
2023/11/01 11:47:37;;;;;;;4.13;2.65;;;20.60;99.90;;;;;;5035134;28;20128;-39
2023/11/01 11:50:08;;;;;;;4.82;2.75;;;20.90;99.90;;;;;;5033273;28;20546;-38
2023/11/01 11:52:38;;;;;;;4.68;2.72;;;20.90;99.90;;;;;;5035578;28;20182;-39
2023/11/01 11:55:05;;;;;;;4.07;2.50;;;21.30;99.90;;;;;;5043413;28;20041;-43
2023/11/01 11:57:34;;;;;;;3.88;2.58;;;20.90;99.90;;;;;;5042421;28;20025;-41
2023/11/01 12:00:05;;;;;;;4.30;2.80;;;20.50;99.90;;;;;;5041210;28;20050;-38
2023/11/01 12:02:32;;;;;;;4.47;2.90;;;20.80;99.90;;;;;;5042700;28;20049;-39
2023/11/01 12:05:00;;;;;;;8.80;5.82;;;21.30;99.90;;;;;;5033045;28;20051;-41
2023/11/01 12:07:28;;;;;;;5.70;3.70;;;21.90;99.90;;;;;;5029532;28;20049;-39
2023/11/01 12:09:56;;;;;;;5.05;3.20;;;23.10;99.90;;;;;;5030421;28;20050;-38
2023/11/01 12:12:26;;;;;;;4.00;2.90;;;24.10;99.90;;;;;;5026087;28;20049;-40
2023/11/01 12:14:59;;;;;;;4.53;2.80;;;23.30;99.90;;;;;;5028247;28;20219;-38
2023/11/01 12:17:30;;;;;;;3.22;2.80;;;22.90;99.90;;;;;;5024356;28;20132;-41
2023/11/01 12:19:58;;;;;;;3.78;2.70;;;22.80;99.90;;;;;;5031818;28;20125;-38
2023/11/01 12:22:25;;;;;;;4.25;2.90;;;22.00;99.90;;;;;;5031319;28;20083;-38
2023/11/01 12:24:55;;;;;;;6.45;3.03;;;21.30;99.90;;;;;;5029484;28;20100;-37
2023/11/01 12:27:29;;;;;;;4.63;3.10;;;20.80;99.90;;;;;;5034339;28;20742;-38
2023/11/01 12:29:57;;;;;;;3.80;2.80;;;20.90;99.90;;;;;;5034440;28;20107;-42
2023/11/01 12:32:24;;;;;;;7.47;2.97;;;21.10;99.90;;;;;;5028570;28;20045;-37
2023/11/01 12:34:57;;;;;;;4.68;3.00;;;20.80;99.90;;;;;;5031467;28;20514;-39
2023/11/01 12:37:26;;;;;;;4.03;3.13;;;21.10;99.90;;;;;;5028968;28;20046;-40
2023/11/01 12:40:13;;;;;;;3.13;2.70;;;21.90;99.90;;;;;;5030084;28;20037;-42
2023/11/01 12:43:06;;;;;;;4.97;3.58;;;22.40;99.90;;;;;;5028729;28;20049;-41
2023/11/01 12:45:34;;;;;;;5.15;3.28;;;23.30;99.90;;;;;;5020015;28;20051;-40
2023/11/01 12:48:02;;;;;;;4.80;3.40;;;23.70;99.90;;;;;;5026366;28;20160;-39
2023/11/01 12:50:33;;;;;;;3.90;3.50;;;24.80;99.90;;;;;;5029367;28;20040;-39
2023/11/01 12:53:00;;;;;;;4.05;3.55;;;25.50;99.90;;;;;;5027644;28;20141;-41
2023/11/01 12:55:28;;;;;;;4.95;4.20;;;26.70;97.00;;;;;;5029148;28;20045;-41